Time;durP1;ratioP1;P1;durP2;ratioP2;P2;SDS_P1;SDS_P2;PMS_P1;PMS_P2;Temp;Humidity;BMP_temperature;BMP_pressure;BME280_temperature;BME280_humidity;BME280_pressure;Samples;Min_cycle;Max_cycle;Signal;HPM_P1;HPM_P2
2024/04/07 00:01:31;;;;;;;87.35;10.57;;;;;;;13.46;100.00;97845.13;4991062;28;20068;-67
2024/04/07 00:03:57;;;;;;;66.43;9.43;;;;;;;13.39;100.00;97839.16;4994159;28;20053;-66
2024/04/07 00:06:23;;;;;;;49.63;8.13;;;;;;;13.55;100.00;97834.59;4992979;28;20657;-67
2024/04/07 00:08:48;;;;;;;37.05;7.88;;;;;;;13.36;100.00;97841.84;4988908;28;20032;-65
2024/04/07 00:11:16;;;;;;;64.60;9.05;;;;;;;13.44;100.00;97833.88;4990734;28;20045;-67
2024/04/07 00:13:41;;;;;;;50.42;7.95;;;;;;;13.38;100.00;97829.63;4991094;28;21821;-67
2024/04/07 00:16:07;;;;;;;58.35;8.68;;;;;;;13.43;100.00;97830.38;4994358;28;20072;-66
2024/04/07 00:18:34;;;;;;;95.05;11.23;;;;;;;13.43;100.00;97834.78;4989137;28;20108;-66
2024/04/07 00:21:02;;;;;;;42.97;7.65;;;;;;;13.27;100.00;97824.56;4992790;28;20153;-68
2024/04/07 00:23:28;;;;;;;91.20;11.40;;;;;;;13.28;100.00;97819.31;4990210;28;20101;-65
2024/04/07 00:25:54;;;;;;;57.40;8.52;;;;;;;13.28;100.00;97824.56;4992596;28;20095;-64
2024/04/07 00:28:19;;;;;;;46.80;8.35;;;;;;;13.29;100.00;97825.44;4994109;28;20679;-64
2024/04/07 00:30:45;;;;;;;78.40;9.68;;;;;;;13.18;100.00;97822.97;4989892;28;20145;-67
2024/04/07 00:33:10;;;;;;;89.82;10.50;;;;;;;13.13;100.00;97820.44;4992464;28;20081;-64
2024/04/07 00:35:35;;;;;;;67.55;9.23;;;;;;;13.09;100.00;97826.59;4992092;28;20093;-64
2024/04/07 00:38:01;;;;;;;43.58;8.10;;;;;;;13.19;100.00;97819.50;4992693;28;20026;-67
2024/04/07 00:40:26;;;;;;;62.25;9.32;;;;;;;13.13;100.00;97815.22;4990973;28;20042;-66
2024/04/07 00:42:51;;;;;;;51.22;7.82;;;;;;;13.14;100.00;97814.31;4993116;28;20034;-66
2024/04/07 00:45:18;;;;;;;45.28;8.55;;;;;;;13.14;100.00;97810.88;4995434;28;20112;-63
2024/04/07 00:47:43;;;;;;;54.03;8.23;;;;;;;13.10;100.00;97807.44;4995074;28;20117;-67
2024/04/07 00:50:10;;;;;;;93.82;10.93;;;;;;;13.13;100.00;97809.13;4992479;28;20186;-67
2024/04/07 00:52:36;;;;;;;51.72;8.57;;;;;;;12.94;100.00;97806.81;4995025;28;20118;-67
2024/04/07 00:55:03;;;;;;;55.13;8.80;;;;;;;12.95;100.00;97812.91;4994935;28;20030;-67
2024/04/07 00:57:29;;;;;;;69.57;9.30;;;;;;;13.00;100.00;97806.72;4992014;28;20052;-67
2024/04/07 00:59:55;;;;;;;42.30;8.32;;;;;;;12.83;100.00;97806.13;4994772;28;20103;-67
2024/04/07 01:02:21;;;;;;;45.13;8.07;;;;;;;12.89;100.00;97806.03;4993807;28;20042;-64
2024/04/07 01:04:46;;;;;;;58.03;8.95;;;;;;;12.84;100.00;97806.09;4994068;28;20525;-65
2024/04/07 01:07:12;;;;;;;46.67;7.80;;;;;;;12.81;100.00;97805.28;4994014;28;20827;-66
2024/04/07 01:09:38;;;;;;;59.80;9.00;;;;;;;12.75;100.00;97804.50;4993266;28;20060;-66
2024/04/07 01:12:12;;;;;;;71.93;9.85;;;;;;;12.57;100.00;97815.19;4990393;28;20038;-66
2024/04/07 01:14:37;;;;;;;69.78;8.93;;;;;;;12.61;100.00;97815.16;4992036;28;20151;-65
2024/04/07 01:17:05;;;;;;;56.08;7.90;;;;;;;12.59;100.00;97811.69;4995037;28;20445;-67
2024/04/07 01:19:30;;;;;;;74.90;9.07;;;;;;;12.67;100.00;97824.63;4993198;28;20040;-66
2024/04/07 01:21:55;;;;;;;41.10;7.57;;;;;;;12.60;100.00;97833.44;4993404;28;20042;-67
2024/04/07 01:24:21;;;;;;;41.40;7.60;;;;;;;12.63;100.00;97823.78;4995130;28;20076;-65
2024/04/07 01:26:46;;;;;;;54.17;8.30;;;;;;;12.60;100.00;97829.09;4995419;28;20065;-67
2024/04/07 01:29:11;;;;;;;60.42;8.52;;;;;;;12.51;100.00;97821.38;4997044;28;20054;-66
2024/04/07 01:31:37;;;;;;;63.08;9.00;;;;;;;12.53;100.00;97831.78;4991240;28;20045;-68
2024/04/07 01:34:02;;;;;;;49.58;8.35;;;;;;;12.61;100.00;97830.81;4994992;28;20030;-67
2024/04/07 01:36:28;;;;;;;58.90;7.85;;;;;;;12.57;100.00;97823.03;4989709;28;20821;-67
2024/04/07 01:38:53;;;;;;;36.70;7.20;;;;;;;12.59;100.00;97822.13;4997487;28;20072;-66
2024/04/07 01:41:18;;;;;;;65.88;8.93;;;;;;;12.58;100.00;97820.41;4993454;28;20076;-66
2024/04/07 01:43:44;;;;;;;46.05;7.07;;;;;;;12.57;100.00;97821.28;4995450;28;20185;-68
2024/04/07 01:46:09;;;;;;;57.60;8.75;;;;;;;12.62;100.00;97821.25;4996053;28;20078;-67
2024/04/07 01:48:34;;;;;;;76.25;9.40;;;;;;;12.62;100.00;97827.28;4995127;28;20132;-63
2024/04/07 01:51:00;;;;;;;43.92;7.78;;;;;;;12.69;100.00;97825.47;4997123;28;20153;-63
2024/04/07 01:53:25;;;;;;;49.90;7.25;;;;;;;12.66;100.00;97825.50;4995229;28;20026;-65
2024/04/07 01:55:52;;;;;;;54.97;8.32;;;;;;;12.67;100.00;97815.94;4995594;28;20034;-66
2024/04/07 01:58:18;;;;;;;54.67;7.85;;;;;;;12.77;100.00;97814.94;4995081;28;20045;-64
2024/04/07 02:00:43;;;;;;;81.28;9.70;;;;;;;12.78;100.00;97818.38;4991460;28;20043;-66
2024/04/07 02:03:08;;;;;;;64.72;9.18;;;;;;;12.76;100.00;97813.19;4994878;28;20462;-65
2024/04/07 02:05:34;;;;;;;67.93;8.98;;;;;;;12.78;100.00;97815.78;4993145;28;20039;-64
2024/04/07 02:08:00;;;;;;;43.25;7.28;;;;;;;12.76;100.00;97818.41;4996461;28;20529;-67
2024/04/07 02:10:26;;;;;;;56.42;8.40;;;;;;;12.75;100.00;97816.69;4993063;28;20022;-63
2024/04/07 02:12:51;;;;;;;45.45;6.65;;;;;;;12.62;100.00;97818.63;4995101;28;20022;-64
2024/04/07 02:15:17;;;;;;;40.53;6.65;;;;;;;12.66;100.00;97816.81;4996625;28;20068;-65
2024/04/07 02:17:43;;;;;;;79.95;9.35;;;;;;;12.49;100.00;97807.50;4997505;28;20018;-64
2024/04/07 02:20:08;;;;;;;70.40;8.77;;;;;;;12.52;100.00;97810.06;4993566;28;20076;-64
2024/04/07 02:22:34;;;;;;;73.63;9.05;;;;;;;12.54;100.00;97804.81;4997850;28;20054;-67
2024/04/07 02:24:59;;;;;;;44.10;7.65;;;;;;;12.55;100.00;97798.72;4996637;28;20072;-64
2024/04/07 02:27:24;;;;;;;49.63;7.95;;;;;;;12.56;100.00;97803.91;4998037;28;20033;-67
2024/04/07 02:29:50;;;;;;;42.72;6.72;;;;;;;12.57;100.00;97799.53;4997767;28;20030;-64
2024/04/07 02:32:15;;;;;;;53.92;8.07;;;;;;;12.57;100.00;97803.03;4994619;28;20033;-67
2024/04/07 02:34:40;;;;;;;85.28;9.93;;;;;;;12.63;100.00;97808.16;4994730;28;20521;-64
2024/04/07 02:37:06;;;;;;;59.70;8.27;;;;;;;12.56;100.00;97805.66;4996801;28;20044;-65
2024/04/07 02:39:32;;;;;;;66.53;8.82;;;;;;;12.55;100.00;97799.56;4996540;28;20402;-67
2024/04/07 02:41:57;;;;;;;58.38;8.18;;;;;;;12.51;100.00;97800.53;4994176;28;20128;-65
2024/04/07 02:48:04;;;;;;;31.95;6.47;;;;;;;12.55;100.00;97794.34;4996832;28;20119;-67
2024/04/07 02:49:52;;;;;;;41.60;7.05;;;;;;;12.51;100.00;97792.69;4996912;28;20056;-68
2024/04/07 02:52:17;;;;;;;59.03;8.45;;;;;;;12.54;100.00;97784.81;4995935;28;20038;-67
2024/04/07 02:54:42;;;;;;;55.13;7.85;;;;;;;12.48;100.00;97792.72;4994419;28;20026;-67
2024/04/07 02:57:08;;;;;;;42.35;7.47;;;;;;;12.53;100.00;97788.31;4995508;28;20041;-67
2024/04/07 02:59:35;;;;;;;73.32;9.68;;;;;;;12.56;100.00;97785.66;4994023;28;20060;-66
2024/04/07 03:02:00;;;;;;;37.25;7.32;;;;;;;12.48;100.00;97785.75;4995214;28;20065;-66
2024/04/07 03:04:26;;;;;;;40.15;6.63;;;;;;;12.53;100.00;97785.69;4996691;28;20052;-67
2024/04/07 03:06:52;;;;;;;39.88;7.13;;;;;;;12.59;100.00;97782.13;4993992;28;20066;-67
2024/04/07 03:09:17;;;;;;;47.75;7.50;;;;;;;12.50;100.00;97783.13;4996098;28;20053;-67
2024/04/07 03:11:43;;;;;;;51.35;7.85;;;;;;;12.47;100.00;97781.41;4994441;28;20042;-67
2024/04/07 03:14:08;;;;;;;50.60;8.40;;;;;;;12.46;100.00;97789.25;4996852;28;20041;-66
2024/04/07 03:16:33;;;;;;;65.90;8.68;;;;;;;12.47;100.00;97788.41;4996293;28;20076;-67
2024/04/07 03:18:59;;;;;;;36.70;6.95;;;;;;;12.40;100.00;97781.53;4994701;28;20030;-68
2024/04/07 03:21:24;;;;;;;32.45;6.32;;;;;;;12.31;100.00;97780.78;4995581;28;20072;-68
2024/04/07 03:23:49;;;;;;;44.92;7.65;;;;;;;12.15;100.00;97779.25;4993215;28;20581;-66
2024/04/07 03:26:15;;;;;;;41.80;6.65;;;;;;;12.21;100.00;97773.97;4997568;28;20050;-66
2024/04/07 03:28:40;;;;;;;65.55;9.05;;;;;;;12.36;100.00;97776.34;4994576;28;20040;-67
2024/04/07 03:31:05;;;;;;;59.60;8.63;;;;;;;12.07;100.00;97766.34;4993260;28;20045;-64
2024/04/07 03:33:35;;;;;;;43.63;7.47;;;;;;;12.13;100.00;97770.63;4996458;28;20037;-66
2024/04/07 03:36:02;;;;;;;38.45;7.10;;;;;;;11.93;100.00;97764.75;4994813;28;20037;-68
2024/04/07 03:38:27;;;;;;;64.75;8.20;;;;;;;12.05;100.00;97776.78;4991500;28;20026;-67
2024/04/07 03:40:53;;;;;;;54.80;8.45;;;;;;;12.07;100.00;97768.94;4989241;28;20414;-65
2024/04/07 03:43:18;;;;;;;37.30;6.78;;;;;;;11.93;100.00;97759.53;4994745;28;20112;-68
2024/04/07 03:45:44;;;;;;;66.95;9.13;;;;;;;11.89;100.00;97762.19;4993797;28;20033;-66
2024/04/07 03:48:09;;;;;;;54.08;8.15;;;;;;;11.83;100.00;97763.97;4992606;28;20072;-68
2024/04/07 03:50:34;;;;;;;62.00;9.18;;;;;;;11.83;100.00;97769.19;4991411;28;20529;-65
2024/04/07 03:53:00;;;;;;;68.85;8.70;;;;;;;11.76;100.00;97767.53;4993032;28;20057;-64
2024/04/07 03:55:25;;;;;;;37.80;7.13;;;;;;;11.62;100.00;97761.63;4991909;28;20057;-65
2024/04/07 03:57:52;;;;;;;34.35;6.85;;;;;;;11.70;100.00;97765.84;4995042;28;20359;-65
2024/04/07 04:00:17;;;;;;;55.38;8.32;;;;;;;11.76;100.00;97769.28;4992376;28;20062;-68
2024/04/07 04:02:45;;;;;;;48.65;7.38;;;;;;;11.74;100.00;97771.91;4994523;28;20145;-68
2024/04/07 04:05:10;;;;;;;41.10;6.82;;;;;;;11.50;100.00;97771.28;4993671;28;20030;-65
2024/04/07 04:07:35;;;;;;;56.90;8.73;;;;;;;11.74;100.00;97774.50;4993901;28;20044;-68
2024/04/07 04:10:01;;;;;;;52.78;10.80;;;;;;;11.66;100.00;97771.13;4993839;28;20026;-68
2024/04/07 04:12:28;;;;;;;40.60;6.80;;;;;;;11.57;100.00;97780.78;4993750;28;20048;-66
2024/04/07 04:14:54;;;;;;;43.72;7.35;;;;;;;11.68;100.00;97787.59;4999003;28;20502;-64
2024/04/07 04:17:20;;;;;;;47.58;7.10;;;;;;;11.37;100.00;97788.78;4995419;28;20037;-68
2024/04/07 04:19:45;;;;;;;52.78;8.75;;;;;;;11.42;100.00;97802.63;4995473;28;20029;-69
2024/04/07 04:22:11;;;;;;;57.22;8.10;;;;;;;11.38;100.00;97792.25;4992667;28;20049;-67
2024/04/07 04:24:36;;;;;;;60.08;8.30;;;;;;;11.49;100.00;97797.34;4992420;28;20402;-68
2024/04/07 04:27:05;;;;;;;29.55;6.28;;;;;;;11.52;100.00;97807.75;4993031;28;20753;-66
2024/04/07 04:29:35;;;;;;;52.67;7.35;;;;;;;11.26;100.00;97812.34;4998386;28;20701;-65
2024/04/07 04:32:02;;;;;;;32.10;6.82;;;;;;;11.42;100.00;97804.34;4994221;28;20038;-67
2024/04/07 04:34:28;;;;;;;44.65;7.28;;;;;;;11.57;100.00;97805.94;4995091;28;20068;-69
2024/04/07 04:36:53;;;;;;;50.75;8.10;;;;;;;11.59;100.00;97799.84;4994947;28;20029;-68
2024/04/07 04:39:19;;;;;;;34.05;6.95;;;;;;;11.64;100.00;97794.59;4993308;28;20108;-67
2024/04/07 04:41:48;;;;;;;57.88;8.50;;;;;;;11.76;100.00;97798.78;4991142;28;20037;-65
2024/04/07 04:44:17;;;;;;;54.42;8.38;;;;;;;11.89;100.00;97799.53;4994605;28;20493;-65
2024/04/07 04:46:44;;;;;;;51.47;8.38;;;;;;;11.88;100.00;97802.16;4991380;28;20112;-65
2024/04/07 04:49:10;;;;;;;46.03;7.22;;;;;;;11.51;100.00;97796.44;4994898;28;20041;-67
2024/04/07 04:51:36;;;;;;;68.78;9.48;;;;;;;11.63;100.00;97812.84;4989176;28;20046;-65
2024/04/07 04:54:02;;;;;;;37.28;6.97;;;;;;;11.85;100.00;97811.72;4996142;28;20076;-65
2024/04/07 04:56:28;;;;;;;45.53;7.88;;;;;;;11.78;100.00;97817.91;4992792;28;20026;-67
2024/04/07 04:58:54;;;;;;;49.40;7.68;;;;;;;11.51;100.00;97816.44;4992093;28;20034;-65
2024/04/07 05:01:19;;;;;;;41.22;7.50;;;;;;;11.87;100.00;97816.06;4993924;28;20092;-65
2024/04/07 05:03:45;;;;;;;54.47;8.23;;;;;;;12.16;100.00;97828.78;4989973;28;20516;-68
2024/04/07 05:06:13;;;;;;;66.80;9.20;;;;;;;11.79;100.00;97829.16;4992423;28;20037;-65
2024/04/07 05:08:39;;;;;;;75.25;9.68;;;;;;;12.17;100.00;97829.66;4991422;28;20038;-68
2024/04/07 05:11:06;;;;;;;49.33;7.45;;;;;;;12.17;100.00;97840.94;4990558;28;20038;-64
2024/04/07 05:13:32;;;;;;;56.90;8.55;;;;;;;12.46;100.00;97841.44;4994413;28;20065;-66
2024/04/07 05:15:57;;;;;;;28.92;6.20;;;;;;;12.42;100.00;97839.75;4995208;28;20040;-64
2024/04/07 05:18:22;;;;;;;41.30;6.53;;;;;;;12.81;100.00;97841.84;4996737;28;20056;-65
2024/04/07 05:20:49;;;;;;;85.15;9.65;;;;;;;13.05;100.00;97845.81;4994807;28;20045;-65
2024/04/07 05:23:14;;;;;;;38.20;6.70;;;;;;;13.19;100.00;97843.00;4997376;28;20080;-65
2024/04/07 05:25:43;;;;;;;67.55;8.68;;;;;;;13.15;100.00;97847.38;4994935;28;20037;-64
2024/04/07 05:28:09;;;;;;;63.45;8.18;;;;;;;13.44;100.00;97844.31;4995008;28;20421;-64
2024/04/07 05:30:38;;;;;;;44.17;7.20;;;;;;;13.67;100.00;97847.41;4993110;28;20046;-65
2024/04/07 05:33:04;;;;;;;37.40;6.63;;;;;;;14.17;100.00;97854.31;4996919;28;20026;-69
2024/04/07 05:35:34;;;;;;;54.00;7.63;;;;;;;14.70;100.00;97861.06;4996724;28;20079;-66
2024/04/07 05:38:00;;;;;;;31.85;6.30;;;;;;;15.87;100.00;97855.66;4996268;28;20040;-67
2024/04/07 05:40:26;;;;;;;33.88;7.07;;;;;;;17.04;100.00;97860.19;4995596;28;20406;-68
2024/04/07 05:42:52;;;;;;;72.07;9.15;;;;;;;18.02;100.00;97866.59;4997090;28;20480;-67
2024/04/07 05:45:17;;;;;;;43.35;7.70;;;;;;;18.55;100.00;97875.22;4987609;28;20022;-68
2024/04/07 05:47:48;;;;;;;42.42;7.18;;;;;;;18.54;100.00;97884.06;4996365;28;20326;-67
2024/04/07 05:50:13;;;;;;;47.95;7.15;;;;;;;19.89;100.00;97888.38;4996774;28;20338;-66
2024/04/07 05:52:40;;;;;;;46.72;6.95;;;;;;;20.68;96.01;97886.69;4994356;28;20030;-68
2024/04/07 05:55:08;;;;;;;33.33;6.30;;;;;;;21.03;84.16;97893.91;4992541;28;20022;-69
2024/04/07 05:57:34;;;;;;;43.83;7.13;;;;;;;20.85;84.04;97905.34;4993826;28;20253;-66
2024/04/07 05:59:59;;;;;;;38.45;6.63;;;;;;;22.67;73.80;97909.56;4997426;28;20052;-66
2024/04/07 06:02:25;;;;;;;31.67;7.20;;;;;;;23.63;64.63;97910.47;4989836;28;20042;-65
2024/04/07 06:04:50;;;;;;;53.60;8.23;;;;;;;24.71;52.74;97910.25;4994283;28;20018;-69
2024/04/07 06:07:16;;;;;;;37.60;7.60;;;;;;;25.42;53.61;97912.03;4995127;28;20338;-67
2024/04/07 06:09:41;;;;;;;41.35;8.48;;;;;;;26.57;49.11;97912.31;4996407;28;20521;-69
2024/04/07 06:12:06;;;;;;;42.45;8.80;;;;;;;26.53;48.16;97916.16;4992924;28;20510;-67
2024/04/07 06:14:32;;;;;;;24.83;7.88;;;;;;;27.90;45.95;97926.81;4995288;28;20057;-70
2024/04/07 06:16:57;;;;;;;27.48;7.82;;;;;;;27.65;43.91;97928.69;4996615;28;20045;-69
2024/04/07 06:19:22;;;;;;;29.70;8.43;;;;;;;28.29;43.11;97938.16;4995924;28;20136;-68
2024/04/07 06:21:47;;;;;;;35.03;8.57;;;;;;;26.59;46.43;97945.09;4992968;28;20034;-68
2024/04/07 06:24:13;;;;;;;35.38;8.60;;;;;;;26.69;49.16;97960.44;4995311;28;20026;-69
2024/04/07 06:26:38;;;;;;;44.53;9.98;;;;;;;26.85;47.64;97963.72;4994521;28;20081;-69
2024/04/07 06:29:03;;;;;;;31.00;8.38;;;;;;;27.88;45.31;97956.38;4995410;28;20858;-66
2024/04/07 06:31:29;;;;;;;22.02;7.75;;;;;;;27.76;44.31;97958.13;4995903;28;20414;-67
2024/04/07 06:33:54;;;;;;;46.72;9.30;;;;;;;28.65;43.49;97967.47;4995020;28;20100;-69
2024/04/07 06:36:19;;;;;;;27.20;7.43;;;;;;;28.06;43.32;97966.63;4995711;28;20045;-66
2024/04/07 06:38:45;;;;;;;40.58;9.20;;;;;;;25.05;48.33;97972.00;4992841;28;20494;-67
2024/04/07 06:41:11;;;;;;;36.13;8.68;;;;;;;24.85;53.58;97975.91;4993794;28;20069;-66
2024/04/07 06:43:37;;;;;;;40.33;9.35;;;;;;;24.71;53.61;97968.75;4996910;28;20087;-69
2024/04/07 06:46:03;;;;;;;26.80;8.23;;;;;;;25.38;51.58;97977.09;4995044;28;20046;-67
2024/04/07 06:48:28;;;;;;;27.75;8.05;;;;;;;24.29;57.20;97973.97;4994563;28;20335;-69
2024/04/07 06:50:53;;;;;;;65.18;11.23;;;;;;;25.24;57.54;97973.50;4993388;28;20343;-67
2024/04/07 06:53:19;;;;;;;33.53;8.82;;;;;;;25.91;50.85;97976.34;4993215;28;20034;-68
2024/04/07 06:55:44;;;;;;;43.40;9.40;;;;;;;25.19;59.12;97973.78;4993218;28;20041;-66
2024/04/07 06:58:09;;;;;;;42.92;9.10;;;;;;;24.58;63.84;97966.84;4994347;28;20400;-67
2024/04/07 07:00:35;;;;;;;33.28;8.77;;;;;;;24.60;58.00;97977.41;4993800;28;20542;-69
2024/04/07 07:03:00;;;;;;;32.83;8.25;;;;;;;25.30;54.97;97981.09;4992475;28;20025;-67
2024/04/07 07:05:26;;;;;;;33.67;9.20;;;;;;;25.37;52.09;97986.00;4993138;28;20513;-66
2024/04/07 07:07:51;;;;;;;51.83;10.25;;;;;;;26.09;48.48;97984.91;4993509;28;20714;-67
2024/04/07 07:10:16;;;;;;;32.97;9.23;;;;;;;26.88;46.35;97987.53;4993010;28;20053;-68
2024/04/07 07:12:42;;;;;;;46.33;9.93;;;;;;;27.81;43.76;97981.81;4994901;28;20048;-67
2024/04/07 07:15:07;;;;;;;33.90;9.15;;;;;;;28.24;41.12;97988.41;4995747;28;20052;-66
2024/04/07 07:17:33;;;;;;;36.75;14.90;;;;;;;28.74;40.07;97986.44;4992798;28;20478;-67
2024/04/07 07:19:58;;;;;;;48.00;21.00;;;;;;;29.68;37.88;97983.44;4992658;28;20064;-68
2024/04/07 07:22:23;;;;;;;33.97;8.75;;;;;;;30.70;37.33;97986.59;4992494;28;20057;-69
2024/04/07 07:24:49;;;;;;;39.55;9.45;;;;;;;29.98;37.44;97992.59;4990563;28;20026;-68
2024/04/07 07:27:15;;;;;;;32.10;9.30;;;;;;;27.47;46.53;97994.97;4997048;28;20542;-66
2024/04/07 07:29:41;;;;;;;53.65;10.27;;;;;;;31.18;39.12;97989.63;4994392;28;20482;-68
2024/04/07 07:32:07;;;;;;;38.53;19.60;;;;;;;33.69;32.29;97989.78;4992874;28;20137;-66
2024/04/07 07:34:33;;;;;;;29.65;7.55;;;;;;;35.60;30.70;98001.78;4993501;28;20524;-69
2024/04/07 07:36:58;;;;;;;31.08;7.35;;;;;;;36.06;29.84;98003.19;4991823;28;20291;-68
2024/04/07 07:39:23;;;;;;;54.95;9.57;;;;;;;33.67;32.57;97999.84;4988271;28;20136;-66
2024/04/07 07:41:49;;;;;;;47.33;8.82;;;;;;;33.75;32.43;98002.63;4989265;28;20038;-66
2024/04/07 07:44:14;;;;;;;34.25;8.18;;;;;;;34.23;31.52;98010.50;4993373;28;20026;-66
2024/04/07 07:46:40;;;;;;;35.63;8.02;;;;;;;34.38;31.83;98002.69;4991057;28;20530;-66
2024/04/07 07:49:06;;;;;;;25.65;7.15;;;;;;;35.54;31.28;98014.09;4993052;28;20064;-68
2024/04/07 07:51:31;;;;;;;37.25;7.63;;;;;;;34.13;32.22;98010.56;4992031;28;20674;-67
2024/04/07 07:53:57;;;;;;;63.10;9.50;;;;;;;32.37;35.54;98013.94;4992218;28;20437;-68
2024/04/07 07:56:22;;;;;;;41.47;8.07;;;;;;;30.95;37.16;98019.34;4992634;28;20037;-69
2024/04/07 07:58:47;;;;;;;65.22;10.27;;;;;;;28.81;41.11;98028.66;4991629;28;20034;-66
2024/04/07 08:01:13;;;;;;;44.80;8.88;;;;;;;28.89;41.34;98029.88;4988712;28;20045;-66
2024/04/07 08:03:38;;;;;;;52.85;9.40;;;;;;;28.52;40.70;98033.59;4990738;28;20026;-68
2024/04/07 08:06:04;;;;;;;50.90;9.45;;;;;;;27.54;41.60;98033.63;4989489;28;20050;-68
2024/04/07 08:08:30;;;;;;;36.88;8.32;;;;;;;26.17;43.60;98027.03;4989820;28;20518;-68
2024/04/07 08:10:55;;;;;;;54.83;9.50;;;;;;;26.16;43.01;98034.16;4988538;28;20042;-66
2024/04/07 08:13:20;;;;;;;40.33;8.70;;;;;;;26.28;42.91;98037.84;4993097;28;20025;-66
2024/04/07 08:15:46;;;;;;;41.35;8.77;;;;;;;26.38;41.70;98038.94;4991878;28;20121;-66
2024/04/07 08:18:12;;;;;;;41.88;8.35;;;;;;;27.67;39.67;98034.47;4992567;28;20120;-68
2024/04/07 08:20:38;;;;;;;45.60;9.48;;;;;;;28.19;38.20;98033.34;4989323;28;20540;-66
2024/04/07 08:23:03;;;;;;;48.78;9.90;;;;;;;29.23;37.04;98035.25;4990351;28;20037;-64
2024/04/07 08:25:29;;;;;;;53.50;9.93;;;;;;;30.13;35.87;98035.19;4988549;28;20034;-65
2024/04/07 08:27:54;;;;;;;60.42;10.40;;;;;;;32.38;33.78;98032.63;4987122;28;20305;-65
2024/04/07 08:30:20;;;;;;;53.72;9.20;;;;;;;34.72;30.22;98045.13;4988676;28;20034;-65
2024/04/07 08:32:45;;;;;;;50.05;8.80;;;;;;;35.83;28.46;98047.13;4989777;28;20564;-68
2024/04/07 08:35:12;;;;;;;37.87;7.20;;;;;;;36.38;27.65;98058.38;4992145;28;20282;-66
2024/04/07 08:37:38;;;;;;;41.83;7.90;;;;;;;36.28;27.58;98058.53;4987653;28;20276;-66
2024/04/07 08:40:05;;;;;;;35.10;7.63;;;;;;;36.76;25.28;98048.88;4986791;28;20522;-65
2024/04/07 08:42:31;;;;;;;30.45;7.05;;;;;;;35.40;26.22;98049.88;4989102;28;20494;-69
2024/04/07 08:45:00;;;;;;;52.10;9.02;;;;;;;35.28;25.52;98047.47;4988636;28;20554;-68
2024/04/07 08:47:30;;;;;;;31.08;7.07;;;;;;;36.07;25.36;98038.19;4987588;28;20505;-66
2024/04/07 08:49:56;;;;;;;46.03;8.27;;;;;;;37.16;24.52;98043.53;4988132;28;20448;-67
2024/04/07 08:52:22;;;;;;;28.65;8.88;;;;;;;34.86;25.70;98043.69;4992840;28;20072;-68
2024/04/07 08:54:48;;;;;;;47.97;7.80;;;;;;;33.80;26.36;98035.38;4993017;28;20049;-67
2024/04/07 08:57:14;;;;;;;54.45;8.10;;;;;;;32.85;27.14;98045.28;4992708;28;20345;-69
2024/04/07 08:59:41;;;;;;;65.80;9.10;;;;;;;32.42;27.49;98035.88;4993767;28;20113;-69
2024/04/07 09:02:07;;;;;;;43.72;8.32;;;;;;;33.85;26.87;98040.31;4991177;28;20038;-68
2024/04/07 09:04:34;;;;;;;50.22;8.82;;;;;;;34.63;25.32;98035.28;4996356;28;20045;-67
2024/04/07 09:07:04;;;;;;;73.43;10.65;;;;;;;35.21;25.28;98043.72;4992719;28;20034;-66
2024/04/07 09:09:30;;;;;;;50.25;8.50;;;;;;;35.03;25.34;98041.09;4994469;28;20247;-69
2024/04/07 09:11:56;;;;;;;61.80;9.50;;;;;;;34.76;24.56;98046.50;4990130;28;20504;-66
2024/04/07 09:14:21;;;;;;;28.58;6.57;;;;;;;34.96;24.94;98045.44;4994633;28;20501;-67
2024/04/07 09:16:46;;;;;;;40.72;7.55;;;;;;;35.90;25.04;98034.66;4993598;28;20354;-66
2024/04/07 09:19:12;;;;;;;50.97;8.27;;;;;;;36.00;24.38;98033.63;4993318;28;20049;-67
2024/04/07 09:21:43;;;;;;;59.30;9.32;;;;;;;34.86;24.74;98038.28;4990889;28;20569;-68
2024/04/07 09:24:10;;;;;;;57.50;9.07;;;;;;;35.05;24.81;98042.63;4993461;28;20404;-66
2024/04/07 09:26:35;;;;;;;68.78;9.93;;;;;;;37.05;23.86;98047.44;4992098;28;20100;-67
2024/04/07 09:29:01;;;;;;;69.18;11.00;;;;;;;37.79;23.16;98040.88;4994609;28;20026;-66
2024/04/07 09:31:26;;;;;;;28.35;7.03;;;;;;;39.03;22.62;98038.09;4991992;28;20199;-67
2024/04/07 09:33:51;;;;;;;63.20;9.55;;;;;;;36.87;23.62;98040.38;4991366;28;20034;-67
2024/04/07 09:36:17;;;;;;;40.97;7.77;;;;;;;35.33;24.97;98032.63;4991993;28;20029;-70
2024/04/07 09:38:42;;;;;;;55.03;8.98;;;;;;;37.24;24.85;98041.66;4992909;28;20304;-67
2024/04/07 09:41:10;;;;;;;33.25;7.50;;;;;;;34.19;25.19;98036.94;4990376;28;20042;-66
2024/04/07 09:43:39;;;;;;;60.47;9.15;;;;;;;33.29;26.66;98035.78;4993256;28;20096;-66
2024/04/07 09:46:05;;;;;;;44.50;8.50;;;;;;;35.07;26.12;98018.13;4994633;28;20060;-67
2024/04/07 09:48:32;;;;;;;36.03;7.88;;;;;;;36.16;25.25;98030.13;4993399;28;20091;-70
2024/04/07 09:51:03;;;;;;;78.88;10.60;;;;;;;33.84;26.84;98034.06;4994767;28;20494;-67
2024/04/07 09:53:59;;;;;;;44.47;8.20;;;;;;;36.55;25.30;98037.53;4993800;28;20312;-68
2024/04/07 09:56:32;;;;;;;34.83;6.53;;;;;;;34.23;25.59;98034.78;4994272;28;20033;-67
2024/04/07 09:58:59;;;;;;;51.13;7.93;;;;;;;34.64;25.82;98032.44;4994048;28;20112;-68
2024/04/07 10:01:25;;;;;;;99.03;12.13;;;;;;;34.25;26.23;98030.09;4989142;28;20474;-66
2024/04/07 10:03:52;;;;;;;68.55;11.52;;;;;;;33.74;26.60;98026.03;4989065;28;20501;-67
2024/04/07 10:06:19;;;;;;;80.38;11.18;;;;;;;33.96;26.49;98031.16;4977440;28;20228;-68
2024/04/07 10:08:45;;;;;;;67.32;9.70;;;;;;;34.88;26.50;98028.16;4987332;28;20287;-66
2024/04/07 10:11:20;;;;;;;34.45;6.93;;;;;;;34.64;26.66;98032.44;4988132;28;20038;-69
2024/04/07 10:13:46;;;;;;;50.38;8.50;;;;;;;34.52;26.71;98020.97;4994711;28;20025;-69
2024/04/07 10:16:15;;;;;;;41.08;8.07;;;;;;;34.70;26.26;98027.38;4994117;28;20038;-66
2024/04/07 10:18:42;;;;;;;58.05;8.98;;;;;;;35.06;25.67;98016.41;4990172;28;20038;-68
2024/04/07 10:21:08;;;;;;;56.80;7.97;;;;;;;34.04;26.45;98025.81;4987562;28;20120;-68
2024/04/07 10:23:35;;;;;;;41.10;7.82;;;;;;;33.72;27.67;98024.50;4990747;28;20438;-68
2024/04/07 10:26:05;;;;;;;67.80;9.65;;;;;;;33.38;27.21;98026.81;4992098;28;20525;-66
2024/04/07 10:28:54;;;;;;;74.03;10.00;;;;;;;33.38;27.74;98032.22;4991015;28;20048;-70
2024/04/07 10:31:29;;;;;;;43.75;7.28;;;;;;;32.92;28.06;98039.34;4992223;28;20191;-67
2024/04/07 10:33:55;;;;;;;71.60;10.02;;;;;;;32.30;29.01;98036.06;4992967;28;20567;-69
2024/04/07 10:36:22;;;;;;;47.80;7.93;;;;;;;31.82;29.86;98040.41;4990278;28;20576;-67
2024/04/07 10:38:56;;;;;;;51.30;7.53;;;;;;;32.14;29.61;98044.69;4992163;28;20497;-65
2024/04/07 10:41:27;;;;;;;52.45;7.70;;;;;;;31.28;30.66;98046.91;4991516;28;20048;-68
2024/04/07 10:43:53;;;;;;;86.27;10.73;;;;;;;31.52;31.04;98047.56;4991492;28;20048;-67
2024/04/07 10:46:20;;;;;;;71.93;9.38;;;;;;;31.91;31.18;98049.50;4990847;28;20754;-68
2024/04/07 10:48:47;;;;;;;48.20;7.90;;;;;;;31.83;31.05;98045.63;4990320;28;20037;-68
2024/04/07 10:51:13;;;;;;;39.47;7.05;;;;;;;31.94;31.08;98054.59;4989326;28;20053;-68
2024/04/07 10:53:40;;;;;;;66.55;8.52;;;;;;;31.13;31.68;98054.47;4988459;28;20038;-69
2024/04/07 10:56:06;;;;;;;82.72;10.07;;;;;;;30.72;32.47;98054.41;4989642;28;20086;-68
2024/04/07 10:58:31;;;;;;;68.57;8.90;;;;;;;30.15;32.85;98060.06;4990741;28;20022;-67
2024/04/07 11:00:57;;;;;;;123.25;13.52;;;;;;;30.15;33.35;98065.44;4988731;28;20409;-67
2024/04/07 11:03:23;;;;;;;55.95;7.93;;;;;;;30.16;33.53;98061.75;4989205;28;20156;-65
2024/04/07 11:05:49;;;;;;;62.65;8.43;;;;;;;30.25;33.37;98076.25;4989911;28;20201;-68
2024/04/07 11:08:14;;;;;;;97.95;10.65;;;;;;;30.12;34.04;98068.31;4988531;28;20398;-66
2024/04/07 11:10:40;;;;;;;77.82;9.25;;;;;;;30.17;33.72;98066.13;4991012;28;20643;-66
2024/04/07 11:13:09;;;;;;;76.78;9.80;;;;;;;29.93;34.62;98067.19;4991933;28;20129;-67
2024/04/07 11:15:34;;;;;;;61.88;8.43;;;;;;;29.19;35.77;98082.00;4991050;28;20115;-70
2024/04/07 11:18:00;;;;;;;56.90;8.40;;;;;;;30.40;34.72;98072.25;4989542;28;20084;-67